Time;durP1;ratioP1;P1;durP2;ratioP2;P2;SDS_P1;SDS_P2;PMS_P1;PMS_P2;Temp;Humidity;BMP_temperature;BMP_pressure;BME280_temperature;BME280_humidity;BME280_pressure;Samples;Min_cycle;Max_cycle;Signal;HPM_P1;HPM_P2
2024/03/11 00:01:48;;;;;;;;;;;9.20;12.30;;;;;;5098736;28;20283;-76
2024/03/11 00:04:15;;;;;;;;;;;9.20;13.60;;;;;;5106598;27;19918;-75
2024/03/11 00:06:44;;;;;;;;;;;9.20;13.80;;;;;;5107320;27;19968;-75
2024/03/11 00:09:28;;;;;;;;;;;9.20;15.60;;;;;;5108374;28;19915;-75
2024/03/11 00:15:12;;;;;;;;;;;9.10;14.40;;;;;;5111950;27;20408;-78
2024/03/11 00:17:38;;;;;;;;;;;9.10;16.00;;;;;;5110421;28;19920;-79
2024/03/11 00:20:05;;;;;;;;;;;9.00;18.70;;;;;;5108993;27;19924;-78
2024/03/11 00:22:48;;;;;;;;;;;9.00;21.60;;;;;;5096238;28;19919;-78
2024/03/11 00:25:35;;;;;;;;;;;9.00;20.70;;;;;;5097636;28;19924;-78
2024/03/11 00:28:05;;;;;;;;;;;9.00;21.00;;;;;;5108640;28;19908;-75
2024/03/11 00:30:37;;;;;;;;;;;8.90;24.00;;;;;;5113003;27;19912;-75
2024/03/11 00:33:09;;;;;;;;;;;9.00;22.90;;;;;;5084395;28;19962;-76
2024/03/11 00:35:34;;;;;;;;;;;8.80;20.70;;;;;;5106061;27;20314;-76
2024/03/11 00:38:00;;;;;;;;;;;8.80;25.90;;;;;;5105916;28;19927;-76
2024/03/11 00:40:29;;;;;;;;;;;8.80;26.00;;;;;;5085777;28;20358;-76
2024/03/11 00:46:04;;;;;;;;;;;8.70;23.90;;;;;;5107083;27;19982;-77
2024/03/11 00:48:49;;;;;;;;;;;8.70;27.90;;;;;;5100406;28;19908;-78
2024/03/11 00:51:23;;;;;;;;;;;8.60;25.40;;;;;;5111278;27;19951;-78
2024/03/11 00:53:48;;;;;;;;;;;8.70;28.20;;;;;;5114284;28;20417;-78
2024/03/11 00:56:17;;;;;;;;;;;8.50;23.40;;;;;;5126700;27;19912;-78
2024/03/11 00:58:48;;;;;;;;;;;8.50;24.90;;;;;;5113564;27;19937;-75
2024/03/11 01:01:13;;;;;;;;;;;8.60;28.70;;;;;;5095641;28;20270;-75
2024/03/11 01:03:39;;;;;;;;;;;8.60;21.90;;;;;;5102784;28;19965;-75
2024/03/11 01:06:05;;;;;;;;;;;8.50;21.40;;;;;;5095332;28;19912;-76
2024/03/11 01:08:32;;;;;;;;;;;8.50;22.20;;;;;;5100253;28;19912;-75
2024/03/11 01:10:57;;;;;;;;;;;8.50;25.00;;;;;;5107369;28;19918;-75
2024/03/11 01:13:29;;;;;;;;;;;8.30;24.10;;;;;;5100016;28;19995;-76
2024/03/11 01:15:58;;;;;;;;;;;8.30;28.50;;;;;;5114785;27;20002;-75
2024/03/11 01:18:24;;;;;;;;;;;8.30;34.50;;;;;;5109407;28;19919;-75
2024/03/11 01:20:54;;;;;;;;;;;8.30;41.30;;;;;;5099285;28;19970;-75
2024/03/11 01:23:20;;;;;;;;;;;8.40;36.60;;;;;;5095299;28;19913;-76
2024/03/11 01:25:58;;;;;;;;;;;8.30;30.00;;;;;;5095483;28;19981;-75
2024/03/11 01:28:29;;;;;;;;;;;8.30;32.60;;;;;;5108902;28;19908;-76
2024/03/11 01:30:58;;;;;;;;;;;8.30;34.40;;;;;;5098855;28;19908;-76
2024/03/11 01:33:24;;;;;;;;;;;8.40;34.00;;;;;;5095523;28;19955;-76
2024/03/11 01:35:53;;;;;;;;;;;8.40;28.10;;;;;;5115971;27;19982;-75
2024/03/11 01:38:19;;;;;;;;;;;8.20;28.70;;;;;;5079393;28;20267;-76
2024/03/11 01:40:46;;;;;;;;;;;8.20;41.00;;;;;;5105939;28;19914;-76
2024/03/11 01:43:24;;;;;;;;;;;8.20;41.30;;;;;;5077223;28;19935;-78
2024/03/11 01:46:19;;;;;;;;;;;8.10;41.20;;;;;;5095254;28;20413;-78
2024/03/11 01:48:53;;;;;;;;;;;8.10;38.00;;;;;;5095110;28;19959;-78
2024/03/11 01:51:21;;;;;;;;;;;8.10;41.30;;;;;;5095946;28;19919;-78
2024/03/11 01:57:06;;;;;;;;;;;8.10;41.20;;;;;;5101293;28;19912;-78
2024/03/11 01:59:35;;;;;;;;;;;8.20;41.50;;;;;;5081262;28;19951;-78
2024/03/11 02:02:08;;;;;;;;;;;8.10;41.20;;;;;;5094597;28;19912;-78
2024/03/11 02:04:38;;;;;;;;;;;8.10;41.30;;;;;;5097444;28;20287;-78
2024/03/11 02:10:15;;;;;;;;;;;8.00;41.10;;;;;;5114745;28;19960;-78
2024/03/11 02:12:47;;;;;;;;;;;8.00;38.00;;;;;;5100158;28;19954;-75
2024/03/11 02:15:23;;;;;;;;;;;8.00;38.00;;;;;;5120310;27;19952;-76
2024/03/11 02:17:53;;;;;;;;;;;8.00;38.00;;;;;;5108374;28;19957;-75
2024/03/11 02:20:23;;;;;;;;;;;8.00;41.30;;;;;;5094543;28;19916;-75
2024/03/11 02:22:53;;;;;;;;;;;8.10;41.20;;;;;;5094551;28;20008;-76
2024/03/11 02:25:26;;;;;;;;;;;8.00;41.30;;;;;;5095242;28;20290;-76
2024/03/11 02:28:10;;;;;;;;;;;8.10;38.00;;;;;;5094904;28;19912;-78
2024/03/11 02:30:47;;;;;;;;;;;8.10;41.30;;;;;;5100593;28;19915;-78
2024/03/11 02:33:13;;;;;;;;;;;8.10;41.20;;;;;;5110081;28;19916;-78
2024/03/11 02:35:38;;;;;;;;;;;8.10;38.00;;;;;;5094546;28;19915;-78
2024/03/11 02:38:17;;;;;;;;;;;8.00;41.30;;;;;;5106091;28;19912;-78
2024/03/11 02:40:47;;;;;;;;;;;7.90;37.90;;;;;;5088183;28;19915;-78
2024/03/11 02:43:12;;;;;;;;;;;7.90;41.10;;;;;;5095596;28;19955;-76
2024/03/11 02:45:39;;;;;;;;;;;7.90;41.10;;;;;;5107258;28;19948;-76
2024/03/11 02:48:05;;;;;;;;;;;7.90;37.80;;;;;;5104932;28;19934;-76
2024/03/11 02:50:47;;;;;;;;;;;8.00;38.00;;;;;;5075924;28;20347;-75
2024/03/11 02:53:12;;;;;;;;;;;7.90;37.90;;;;;;5108646;28;19912;-75
2024/03/11 02:55:41;;;;;;;;;;;7.90;41.40;;;;;;5106066;28;19957;-74
2024/03/11 02:58:29;;;;;;;;;;;7.80;41.00;;;;;;5082853;28;19957;-78
2024/03/11 03:00:56;;;;;;;;;;;7.80;41.00;;;;;;5101781;28;19912;-78
2024/03/11 03:03:41;;;;;;;;;;;7.80;41.10;;;;;;5093935;28;19916;-78
2024/03/11 03:06:40;;;;;;;;;;;7.80;41.10;;;;;;5097629;28;20006;-78
2024/03/11 03:09:17;;;;;;;;;;;7.80;37.70;;;;;;5113559;28;19919;-78
2024/03/11 03:11:42;;;;;;;;;;;7.80;41.00;;;;;;5095785;28;19915;-78
2024/03/11 03:14:08;;;;;;;;;;;7.90;41.10;;;;;;5101769;28;19912;-78
2024/03/11 03:16:33;;;;;;;;;;;7.90;37.80;;;;;;5093578;28;19919;-78
2024/03/11 03:19:17;;;;;;;;;;;7.90;41.30;;;;;;5093575;28;19916;-78
2024/03/11 03:21:47;;;;;;;;;;;8.00;41.10;;;;;;5103560;28;19951;-79
2024/03/11 03:24:12;;;;;;;;;;;8.00;41.10;;;;;;5113893;28;19922;-78
2024/03/11 03:26:38;;;;;;;;;;;7.90;37.80;;;;;;5110622;28;20286;-79
2024/03/11 03:29:39;;;;;;;;;;;7.90;37.90;;;;;;5095586;28;19915;-78
2024/03/11 03:35:11;;;;;;;;;;;7.90;41.00;;;;;;5095220;28;19923;-78
2024/03/11 03:37:59;;;;;;;;;;;7.80;37.70;;;;;;5100394;28;19916;-78
2024/03/11 03:40:29;;;;;;;;;;;7.80;41.20;;;;;;5075232;28;19957;-78
2024/03/11 03:43:05;;;;;;;;;;;7.70;37.70;;;;;;5106073;28;19918;-78
2024/03/11 03:48:33;;;;;;;;;;;7.80;41.00;;;;;;5127278;27;19914;-78
2024/03/11 03:50:59;;;;;;;;;;;7.80;41.00;;;;;;5086485;28;19908;-78
2024/03/11 03:53:29;;;;;;;;;;;7.90;41.30;;;;;;5115153;27;19915;-78
2024/03/11 03:56:11;;;;;;;;;;;7.80;41.10;;;;;;5114140;27;19908;-78
2024/03/11 04:01:53;;;;;;;;;;;7.90;41.10;;;;;;5109579;27;19935;-79
2024/03/11 04:07:21;;;;;;;;;;;7.90;37.80;;;;;;5110058;28;20019;-78
2024/03/11 04:09:46;;;;;;;;;;;8.00;41.30;;;;;;5106574;28;20374;-78
2024/03/11 04:12:29;;;;;;;;;;;7.90;37.80;;;;;;5100911;28;19918;-78
2024/03/11 04:14:59;;;;;;;;;;;7.90;41.30;;;;;;5101268;27;19908;-78
2024/03/11 04:17:25;;;;;;;;;;;8.10;38.00;;;;;;5117117;27;19912;-78
2024/03/11 04:20:11;;;;;;;;;;;8.00;41.50;;;;;;5098366;28;19916;-78
2024/03/11 04:22:46;;;;;;;;;;;8.20;41.30;;;;;;5091887;28;20282;-78
2024/03/11 04:25:31;;;;;;;;;;;8.30;38.20;;;;;;5107255;28;19916;-78
2024/03/11 04:27:59;;;;;;;;;;;8.30;41.60;;;;;;5114043;28;19918;-78
2024/03/11 04:33:30;;;;;;;;;;;8.10;41.30;;;;;;5104307;28;20023;-78
2024/03/11 04:36:16;;;;;;;;;;;8.00;41.30;;;;;;5096003;28;19931;-78
2024/03/11 04:38:59;;;;;;;;;;;8.10;41.40;;;;;;5085321;28;19916;-78
2024/03/11 04:41:53;;;;;;;;;;;8.20;38.10;;;;;;5078613;28;19915;-78
2024/03/11 04:47:41;;;;;;;;;;;8.20;38.10;;;;;;5103701;28;19956;-78
2024/03/11 04:50:10;;;;;;;;;;;8.20;41.60;;;;;;5096963;28;19916;-78
2024/03/11 04:52:36;;;;;;;;;;;8.10;41.20;;;;;;5095770;28;20271;-78
2024/03/11 04:55:23;;;;;;;;;;;8.10;41.20;;;;;;5105399;28;19908;-78
2024/03/11 04:57:53;;;;;;;;;;;8.00;41.30;;;;;;5096625;28;19922;-78
2024/03/11 05:00:30;;;;;;;;;;;8.00;41.20;;;;;;5097283;28;20011;-78
2024/03/11 05:02:59;;;;;;;;;;;8.00;41.30;;;;;;5097845;28;19908;-78
2024/03/11 05:05:52;;;;;;;;;;;8.00;37.90;;;;;;5088360;28;19907;-78
2024/03/11 05:08:29;;;;;;;;;;;8.10;41.30;;;;;;5115882;28;19912;-79
2024/03/11 05:10:59;;;;;;;;;;;8.00;38.00;;;;;;5110130;27;20002;-78
2024/03/11 05:13:49;;;;;;;;;;;8.00;41.20;;;;;;5121074;27;19911;-78
2024/03/11 05:16:18;;;;;;;;;;;8.00;37.90;;;;;;5106697;28;20010;-76
2024/03/11 05:18:43;;;;;;;;;;;8.00;41.20;;;;;;5101171;28;20314;-75
2024/03/11 05:21:09;;;;;;;;;;;8.00;37.90;;;;;;5106646;27;19912;-75
2024/03/11 05:23:36;;;;;;;;;;;8.00;41.30;;;;;;5103436;27;19998;-75
2024/03/11 05:26:02;;;;;;;;;;;8.00;41.20;;;;;;5108762;28;20291;-76
2024/03/11 05:28:29;;;;;;;;;;;7.90;37.80;;;;;;5108900;28;19923;-75
2024/03/11 05:30:54;;;;;;;;;;;7.90;41.10;;;;;;5097689;28;19916;-79
2024/03/11 05:33:20;;;;;;;;;;;8.00;37.90;;;;;;5117638;27;19956;-79
2024/03/11 05:35:46;;;;;;;;;;;7.90;41.20;;;;;;5134457;27;19957;-78
2024/03/11 05:38:17;;;;;;;;;;;8.00;41.20;;;;;;5117542;27;19915;-78
2024/03/11 05:40:43;;;;;;;;;;;8.00;37.90;;;;;;5101083;28;19912;-78
2024/03/11 05:43:09;;;;;;;;;;;8.00;41.30;;;;;;5107273;28;19998;-78
2024/03/11 05:45:41;;;;;;;;;;;8.00;41.20;;;;;;5103460;28;19992;-78
2024/03/11 05:48:08;;;;;;;;;;;8.00;41.20;;;;;;5102016;28;19911;-78
2024/03/11 05:50:37;;;;;;;;;;;8.00;37.90;;;;;;5100600;27;19960;-78
2024/03/11 05:53:12;;;;;;;;;;;8.00;46.70;;;;;;5122743;27;19919;-78
2024/03/11 05:55:59;;;;;;;;;;;8.00;52.70;;;;;;5105248;28;19966;-80
2024/03/11 05:58:28;;;;;;;;;;;8.10;53.30;;;;;;5122056;27;20321;-79
2024/03/11 06:00:54;;;;;;;;;;;8.20;43.70;;;;;;5102108;28;19974;-75
2024/03/11 06:03:36;;;;;;;;;;;8.20;47.30;;;;;;5111572;27;19911;-76
2024/03/11 06:06:05;;;;;;;;;;;8.10;47.10;;;;;;5112027;28;19912;-75
2024/03/11 06:08:53;;;;;;;;;;;8.20;48.00;;;;;;5108923;27;19955;-75
2024/03/11 06:11:23;;;;;;;;;;;8.20;54.70;;;;;;5095479;28;19912;-76
2024/03/11 06:13:49;;;;;;;;;;;8.20;52.10;;;;;;5108765;28;19912;-81
2024/03/11 06:16:17;;;;;;;;;;;8.20;53.30;;;;;;5115098;28;19918;-82
2024/03/11 06:18:47;;;;;;;;;;;8.20;51.30;;;;;;5128929;27;20000;-81
2024/03/11 06:21:35;;;;;;;;;;;8.30;55.60;;;;;;5103018;28;20049;-81
2024/03/11 06:24:05;;;;;;;;;;;8.20;50.60;;;;;;5097072;28;19921;-79
2024/03/11 06:26:35;;;;;;;;;;;8.20;58.90;;;;;;5110821;28;20273;-79
2024/03/11 06:29:17;;;;;;;;;;;8.20;57.20;;;;;;5124796;28;19908;-78
2024/03/11 06:31:48;;;;;;;;;;;8.30;62.10;;;;;;5106160;28;19931;-78
2024/03/11 06:34:14;;;;;;;;;;;8.40;60.30;;;;;;5095035;28;19916;-78
2024/03/11 06:37:11;;;;;;;;;;;8.40;55.00;;;;;;5094219;28;20073;-78
2024/03/11 06:39:41;;;;;;;;;;;8.40;55.10;;;;;;5105308;28;19952;-78
2024/03/11 06:42:11;;;;;;;;;;;8.40;53.60;;;;;;5097672;28;19908;-78
2024/03/11 06:44:42;;;;;;;;;;;8.40;59.60;;;;;;5099011;28;19916;-78
2024/03/11 06:47:09;;;;;;;;;;;8.50;54.80;;;;;;5099239;28;19965;-77
2024/03/11 06:49:36;;;;;;;;;;;8.50;57.20;;;;;;5103025;28;19908;-75
2024/03/11 06:52:02;;;;;;;;;;;8.50;55.30;;;;;;5093595;28;20267;-75
2024/03/11 06:54:28;;;;;;;;;;;8.50;53.30;;;;;;5107337;28;19960;-76
2024/03/11 06:56:55;;;;;;;;;;;8.50;55.90;;;;;;5108739;28;19988;-76
2024/03/11 06:59:21;;;;;;;;;;;8.60;51.30;;;;;;5082778;28;19974;-75
2024/03/11 07:01:46;;;;;;;;;;;8.60;50.60;;;;;;5100927;28;19965;-76
2024/03/11 07:04:12;;;;;;;;;;;8.60;40.40;;;;;;5108099;28;20010;-76
2024/03/11 07:06:41;;;;;;;;;;;8.50;42.00;;;;;;5112140;28;19924;-75
2024/03/11 07:09:07;;;;;;;;;;;8.70;46.60;;;;;;5112651;28;19990;-75
2024/03/11 07:11:42;;;;;;;;;;;8.60;38.50;;;;;;5108255;28;19908;-75
2024/03/11 07:14:23;;;;;;;;;;;8.60;44.90;;;;;;5111569;28;19920;-76
2024/03/11 07:16:52;;;;;;;;;;;8.70;48.30;;;;;;5113808;28;19965;-76
2024/03/11 07:19:19;;;;;;;;;;;8.60;41.90;;;;;;5103871;27;20353;-76
2024/03/11 07:21:47;;;;;;;;;;;8.60;49.50;;;;;;5118375;27;19915;-75
2024/03/11 07:24:12;;;;;;;;;;;8.60;48.20;;;;;;5116536;28;19951;-75
2024/03/11 07:26:38;;;;;;;;;;;10.00;51.70;;;;;;5112399;27;19959;-75
2024/03/11 07:29:04;;;;;;;;;;;8.90;45.90;;;;;;5111042;27;19919;-74
2024/03/11 07:31:41;;;;;;;;;;;8.90;42.40;;;;;;5116951;28;19943;-78
2024/03/11 07:34:11;;;;;;;;;;;8.90;41.90;;;;;;5111594;28;19912;-78
2024/03/11 07:36:41;;;;;;;;;;;9.00;42.10;;;;;;5096345;28;19919;-78
2024/03/11 07:39:17;;;;;;;;;;;9.10;42.20;;;;;;5108509;28;19916;-78
2024/03/11 07:41:59;;;;;;;;;;;9.00;42.00;;;;;;5105069;27;20061;-78
2024/03/11 07:44:35;;;;;;;;;;;9.00;38.70;;;;;;5105077;28;19919;-78
2024/03/11 07:47:00;;;;;;;;;;;9.20;39.00;;;;;;5117200;27;19912;-75
2024/03/11 07:49:29;;;;;;;;;;;9.10;42.40;;;;;;5119817;27;19943;-76
2024/03/11 07:51:57;;;;;;;;;;;9.30;39.00;;;;;;5112195;27;19912;-75
2024/03/11 07:54:23;;;;;;;;;;;9.30;42.30;;;;;;5103747;27;20428;-75
2024/03/11 07:56:59;;;;;;;;;;;9.40;42.30;;;;;;5115567;27;19916;-75
2024/03/11 07:59:25;;;;;;;;;;;9.30;42.40;;;;;;5115214;27;19995;-75
2024/03/11 08:01:52;;;;;;;;;;;9.20;42.10;;;;;;5046426;28;20019;-76
2024/03/11 08:04:18;;;;;;;;;;;9.30;39.00;;;;;;5030846;28;19971;-76
2024/03/11 08:06:44;;;;;;;;;;;9.30;42.30;;;;;;5048766;28;19909;-76
2024/03/11 08:09:13;;;;;;;;;;;9.30;42.20;;;;;;5048091;28;19916;-75
2024/03/11 08:11:41;;;;;;;;;;;9.40;39.10;;;;;;5056001;28;19909;-75
2024/03/11 08:14:11;;;;;;;;;;;9.40;42.60;;;;;;5049070;28;19995;-75
2024/03/11 08:16:41;;;;;;;;;;;9.50;39.20;;;;;;5056406;28;19955;-78
2024/03/11 08:19:13;;;;;;;;;;;9.50;42.70;;;;;;5052224;28;19917;-78
2024/03/11 08:21:40;;;;;;;;;;;9.70;39.40;;;;;;5055753;28;19996;-78
2024/03/11 08:24:29;;;;;;;;;;;9.70;42.50;;;;;;5047989;28;19913;-78
2024/03/11 08:27:29;;;;;;;;;;;9.60;42.50;;;;;;5033993;28;20273;-78
2024/03/11 08:30:23;;;;;;;;;;;9.70;42.60;;;;;;5046250;28;19920;-78
2024/03/11 08:32:53;;;;;;;;;;;9.80;42.90;;;;;;5050474;28;19932;-78
2024/03/11 08:35:23;;;;;;;;;;;9.80;26.30;;;;;;5052011;28;19917;-78
2024/03/11 08:37:49;;;;;;;;;;;9.70;26.50;;;;;;5045675;28;20284;-77
2024/03/11 08:40:23;;;;;;;;;;;9.70;27.00;;;;;;5051291;28;19920;-78
2024/03/11 08:42:59;;;;;;;;;;;9.70;27.20;;;;;;5051869;28;19948;-78
2024/03/11 08:45:35;;;;;;;;;;;9.80;30.00;;;;;;5046561;28;20555;-79
2024/03/11 08:48:06;;;;;;;;;;;10.00;27.60;;;;;;5051477;28;19929;-75
2024/03/11 08:50:32;;;;;;;;;;;10.10;25.00;;;;;;5038595;28;19913;-75
2024/03/11 08:53:07;;;;;;;;;;;10.20;20.40;;;;;;5051437;28;19923;-75
2024/03/11 08:55:35;;;;;;;;;;;10.30;16.70;;;;;;5047814;28;20334;-76
2024/03/11 08:58:01;;;;;;;;;;;10.20;9.90;;;;;;5056224;28;19912;-76
2024/03/11 09:00:30;;;;;;;;;;;10.10;7.60;;;;;;5035198;28;19982;-76
2024/03/11 09:03:11;;;;;;;;;;;10.00;3.20;;;;;;5044383;28;19927;-77
2024/03/11 09:06:05;;;;;;;;;;;10.00;5.60;;;;;;5045113;28;20003;-78
2024/03/11 09:08:35;;;;;;;;;;;9.80;8.50;;;;;;5049182;28;19947;-77
2024/03/11 09:11:05;;;;;;;;;;;9.80;11.40;;;;;;5049354;28;19913;-77
2024/03/11 09:13:31;;;;;;;;;;;9.70;16.90;;;;;;5053031;28;19920;-77
2024/03/11 09:15:57;;;;;;;;;;;9.60;17.50;;;;;;5041042;28;19963;-78
2024/03/11 09:21:26;;;;;;;;;;;9.60;22.20;;;;;;5051238;28;19974;-77
2024/03/11 09:29:59;;;;;;;;;;;10.10;25.60;;;;;;5054032;28;19963;-78
2024/03/11 09:32:24;;;;;;;;;;;10.40;16.10;;;;;;5066350;28;19920;-75
2024/03/11 09:34:50;;;;;;;;;;;10.40;11.60;;;;;;5048201;28;19966;-75
2024/03/11 09:37:18;;;;;;;;;;;10.60;4.10;;;;;;5051703;28;19955;-75
2024/03/11 09:40:01;;;;;;;;;;;10.70;2.00;;;;;;5047541;28;20364;-76
2024/03/11 09:42:30;;;;;;;;;;;10.80;3.00;;;;;;5049123;28;19931;-76
2024/03/11 09:44:56;;;;;;;;;;;10.80;1.00;;;;;;5042301;28;20003;-76
2024/03/11 09:47:22;;;;;;;;;;;11.00;2.00;;;;;;5054835;28;19940;-76
2024/03/11 09:49:48;;;;;;;;;;;;;;;;;;5048625;28;19913;-75
2024/03/11 09:52:23;;;;;;;;;;;10.90;1.00;;;;;;5059158;28;19916;-76
2024/03/11 09:54:48;;;;;;;;;;;10.80;1.00;;;;;;5048546;28;19917;-77
2024/03/11 09:57:14;;;;;;;;;;;11.00;1.70;;;;;;5053580;28;19988;-76
2024/03/11 09:59:49;;;;;;;;;;;11.00;1.00;;;;;;5052815;28;19924;-78
2024/03/11 10:02:19;;;;;;;;;;;11.30;1.00;;;;;;5018594;28;19912;-77
2024/03/11 10:04:45;;;;;;;;;;;11.40;1.00;;;;;;5053295;28;19966;-76
2024/03/11 10:10:30;;;;;;;;;;;11.60;1.00;;;;;;5042441;28;19928;-82
2024/03/11 10:13:29;;;;;;;;;;;11.80;1.00;;;;;;5045233;28;20375;-82
2024/03/11 10:16:26;;;;;;;;;;;11.60;1.00;;;;;;5053548;28;19909;-84
2024/03/11 10:19:02;;;;;;;;;;;11.70;1.00;;;;;;4992683;28;19917;-78
2024/03/11 10:21:34;;;;;;;;;;;11.90;1.00;;;;;;4992011;28;19914;-79
2024/03/11 10:27:17;;;;;;;;;;;11.70;1.00;;;;;;4999171;28;19948;-78
2024/03/11 10:30:20;;;;;;;;;;;11.80;1.00;;;;;;5006423;28;20370;-78
2024/03/11 10:32:57;;;;;;;;;;;11.80;1.00;;;;;;4945041;29;20053;-75
2024/03/11 10:35:23;;;;;;;;;;;11.80;1.00;;;;;;4936409;29;19921;-75
2024/03/11 10:38:10;;;;;;;;;;;12.00;1.00;;;;;;4933800;29;19922;-75
2024/03/11 10:40:38;;;;;;;;;;;12.00;1.00;;;;;;4934712;29;19949;-76
2024/03/11 10:43:23;;;;;;;;;;;12.40;1.00;;;;;;4928614;29;19919;-76
2024/03/11 10:45:54;;;;;;;;;;;12.70;1.00;;;;;;4933805;29;20409;-77
2024/03/11 10:48:25;;;;;;;;;;;12.70;1.00;;;;;;4937579;29;20014;-75
2024/03/11 10:50:54;;;;;;;;;;;12.70;1.00;;;;;;4921020;29;19958;-78
2024/03/11 10:53:35;;;;;;;;;;;12.70;1.00;;;;;;4936781;28;19968;-79
2024/03/11 10:56:20;;;;;;;;;;;13.00;1.00;;;;;;4941800;28;20287;-78
2024/03/11 10:58:54;;;;;;;;;;;13.10;1.00;;;;;;4966297;28;19968;-78
2024/03/11 11:04:29;;;;;;;;;;;13.40;1.00;;;;;;4974412;28;19941;-78
2024/03/11 11:07:11;;;;;;;;;;;13.60;1.00;;;;;;5016824;28;19912;-78
2024/03/11 11:09:37;;;;;;;;;;;13.60;1.00;;;;;;5057835;28;19948;-78
2024/03/11 11:12:29;;;;;;;;;;;13.80;1.00;;;;;;5047672;28;20324;-77
2024/03/11 11:15:07;;;;;;;;;;;13.80;1.00;;;;;;5054364;28;20392;-77
2024/03/11 11:17:37;;;;;;;;;;;13.80;1.00;;;;;;5050724;28;20255;-77
2024/03/11 11:20:56;;;;;;;;;;;13.80;1.00;;;;;;5052537;28;19917;-77
2024/03/11 11:26:48;;;;;;;;;;;13.40;1.00;;;;;;5052154;28;19962;-77
2024/03/11 11:35:47;;;;;;;;;;;13.50;1.00;;;;;;5003080;28;20076;-77
2024/03/11 11:38:19;;;;;;;;;;;13.30;1.00;;;;;;4988837;28;19918;-77
2024/03/11 11:40:53;;;;;;;;;;;13.40;1.00;;;;;;4992266;28;20000;-77
2024/03/11 11:46:51;;;;;;;;;;;13.20;1.00;;;;;;4994080;28;20340;-77
2024/03/11 11:49:27;;;;;;;;;;;13.10;1.00;;;;;;4994913;28;20611;-77
2024/03/11 11:52:08;;;;;;;;;;;13.20;1.00;;;;;;4990582;28;20012;-76
2024/03/11 11:54:35;;;;;;;;;;;13.40;1.00;;;;;;4988973;28;19921;-76
2024/03/11 11:57:06;;;;;;;;;;;13.70;1.00;;;;;;4994343;28;20351;-76
2024/03/11 11:59:40;;;;;;;;;;;13.90;1.00;;;;;;4995961;28;19928;-75
2024/03/11 12:02:28;;;;;;;;;;;14.00;1.00;;;;;;4991281;28;19914;-78
2024/03/11 12:04:54;;;;;;;;;;;14.00;1.00;;;;;;5020701;28;19920;-78
2024/03/11 12:07:23;;;;;;;;;;;14.10;1.00;;;;;;5035847;28;19997;-77
2024/03/11 12:09:56;;;;;;;;;;;14.20;1.00;;;;;;5051034;28;20415;-79
2024/03/11 12:12:33;;;;;;;;;;;14.60;1.00;;;;;;5049078;28;19909;-77
2024/03/11 12:15:34;;;;;;;;;;;14.50;1.00;;;;;;5045687;28;19959;-79
2024/03/11 12:18:12;;;;;;;;;;;14.60;1.00;;;;;;5014134;28;19945;-81
2024/03/11 12:20:47;;;;;;;;;;;14.60;1.00;;;;;;5018857;28;20284;-84
2024/03/11 12:23:29;;;;;;;;;;;14.30;1.00;;;;;;5014266;28;19910;-84
2024/03/11 12:26:18;;;;;;;;;;;14.10;1.00;;;;;;5017766;28;19913;-77
2024/03/11 12:29:00;;;;;;;;;;;14.00;1.00;;;;;;5013976;28;19945;-74
2024/03/11 12:31:32;;;;;;;;;;;14.00;1.00;;;;;;5017741;28;20425;-75
2024/03/11 12:34:15;;;;;;;;;;;14.00;1.00;;;;;;5015703;28;19914;-76
2024/03/11 12:36:48;;;;;;;;;;;14.20;1.00;;;;;;5015476;28;19968;-77
2024/03/11 12:39:26;;;;;;;;;;;14.10;1.00;;;;;;5015143;28;19924;-75
2024/03/11 12:42:00;;;;;;;;;;;14.20;1.00;;;;;;5017185;28;20377;-77
2024/03/11 12:44:31;;;;;;;;;;;14.40;1.00;;;;;;5020392;28;19913;-76
2024/03/11 12:47:01;;;;;;;;;;;14.80;1.00;;;;;;5031613;28;19919;-78
2024/03/11 12:49:35;;;;;;;;;;;14.70;1.00;;;;;;5013978;28;20385;-76
2024/03/11 12:52:14;;;;;;;;;;;14.80;1.00;;;;;;5002996;28;19909;-77
2024/03/11 12:54:41;;;;;;;;;;;15.20;1.00;;;;;;5043309;28;19936;-76
2024/03/11 12:57:14;;;;;;;;;;;15.20;1.00;;;;;;5055407;28;19991;-75
2024/03/11 12:59:59;;;;;;;;;;;15.60;1.00;;;;;;5055489;28;20054;-76
2024/03/11 13:02:29;;;;;;;;;;;15.60;1.00;;;;;;5055125;28;19916;-76
2024/03/11 13:05:10;;;;;;;;;;;15.70;1.00;;;;;;5042656;28;19908;-79
2024/03/11 13:07:53;;;;;;;;;;;15.60;1.00;;;;;;5055184;28;20420;-79
2024/03/11 13:10:24;;;;;;;;;;;15.70;1.00;;;;;;5055284;28;19939;-76
2024/03/11 13:12:50;;;;;;;;;;;15.20;1.00;;;;;;5055585;28;19909;-76
2024/03/11 13:15:16;;;;;;;;;;;15.30;1.00;;;;;;5055357;28;19916;-77
2024/03/11 13:17:41;;;;;;;;;;;15.00;1.00;;;;;;5033798;28;19920;-75
2024/03/11 13:20:37;;;;;;;;;;;14.90;1.00;;;;;;5041338;28;19966;-79
2024/03/11 13:23:11;;;;;;;;;;;15.00;1.00;;;;;;5044096;28;19955;-77
2024/03/11 13:25:59;;;;;;;;;;;15.00;1.00;;;;;;5054984;28;20364;-76
2024/03/11 13:28:28;;;;;;;;;;;15.10;1.00;;;;;;5054688;28;19912;-74
2024/03/11 13:30:54;;;;;;;;;;;15.00;1.00;;;;;;5040714;28;19923;-78
2024/03/11 13:33:41;;;;;;;;;;;15.20;1.00;;;;;;5052488;28;20011;-74
2024/03/11 13:36:18;;;;;;;;;;;15.00;1.00;;;;;;5035762;28;19920;-78
2024/03/11 13:39:00;;;;;;;;;;;15.10;1.00;;;;;;5052341;28;19924;-77
2024/03/11 13:41:29;;;;;;;;;;;15.30;1.00;;;;;;5054518;28;19923;-77
2024/03/11 13:44:10;;;;;;;;;;;15.40;1.00;;;;;;5041488;28;19982;-77
2024/03/11 13:46:37;;;;;;;;;;;15.30;1.00;;;;;;5045903;28;20008;-77
2024/03/11 13:49:07;;;;;;;;;;;15.30;1.00;;;;;;5054542;28;19909;-78
2024/03/11 13:51:49;;;;;;;;;;;15.50;1.00;;;;;;5055031;28;19919;-76
2024/03/11 13:54:23;;;;;;;;;;;15.50;1.00;;;;;;5053472;28;19967;-77
2024/03/11 13:57:11;;;;;;;;;;;15.20;1.00;;;;;;5053003;28;19917;-79
2024/03/11 14:00:00;;;;;;;;;;;15.30;1.00;;;;;;5054194;28;19917;-79
2024/03/11 14:02:29;;;;;;;;;;;15.30;1.00;;;;;;5054118;28;19909;-81
2024/03/11 14:04:59;;;;;;;;;;;15.10;1.00;;;;;;5055049;28;19920;-75
2024/03/11 14:07:25;;;;;;;;;;;15.20;1.00;;;;;;5030110;28;20047;-75
2024/03/11 14:09:51;;;;;;;;;;;15.20;1.00;;;;;;5029491;28;20007;-74
2024/03/11 14:12:23;;;;;;;;;;;15.30;1.00;;;;;;5043910;28;19916;-74
2024/03/11 14:14:49;;;;;;;;;;;15.30;1.00;;;;;;5054334;28;19959;-74
2024/03/11 14:17:14;;;;;;;;;;;15.50;1.00;;;;;;5052672;28;19991;-74
2024/03/11 14:19:47;;;;;;;;;;;15.50;1.00;;;;;;5054113;28;20016;-76
2024/03/11 14:22:14;;;;;;;;;;;15.40;1.00;;;;;;5053864;28;20023;-78
2024/03/11 14:24:40;;;;;;;;;;;15.40;1.00;;;;;;5053708;28;19916;-76
2024/03/11 14:27:06;;;;;;;;;;;15.40;1.00;;;;;;5053952;28;19909;-75
2024/03/11 14:29:34;;;;;;;;;;;15.40;1.00;;;;;;5053970;28;19944;-76
2024/03/11 14:32:00;;;;;;;;;;;15.60;1.00;;;;;;5053965;28;20000;-76
2024/03/11 14:34:26;;;;;;;;;;;15.40;1.00;;;;;;5053434;28;19937;-77
2024/03/11 14:36:59;;;;;;;;;;;15.20;1.00;;;;;;5053388;28;19920;-77
2024/03/11 14:39:26;;;;;;;;;;;15.50;1.00;;;;;;5035502;28;19959;-78
2024/03/11 14:41:52;;;;;;;;;;;15.50;1.00;;;;;;5053656;28;19909;-77
2024/03/11 14:44:23;;;;;;;;;;;15.70;1.00;;;;;;5053253;28;19913;-77
2024/03/11 14:46:49;;;;;;;;;;;15.70;1.00;;;;;;5033999;28;19921;-77
2024/03/11 14:49:18;;;;;;;;;;;15.50;1.00;;;;;;5049565;28;20373;-77
2024/03/11 14:51:45;;;;;;;;;;;15.60;1.00;;;;;;5052550;28;19909;-77
2024/03/11 14:54:14;;;;;;;;;;;15.70;1.00;;;;;;5051165;28;19924;-77
2024/03/11 14:56:42;;;;;;;;;;;15.80;1.00;;;;;;5053493;28;20284;-77
2024/03/11 14:59:31;;;;;;;;;;;15.60;1.00;;;;;;5053597;28;19917;-77
2024/03/11 15:02:06;;;;;;;;;;;15.70;1.00;;;;;;5053678;28;19955;-76
2024/03/11 15:04:32;;;;;;;;;;;15.40;1.00;;;;;;5053484;28;20341;-76
2024/03/11 15:06:58;;;;;;;;;;;15.40;1.00;;;;;;5052203;28;19945;-77
2024/03/11 15:09:23;;;;;;;;;;;15.30;1.00;;;;;;5053697;28;19982;-76
2024/03/11 15:11:53;;;;;;;;;;;15.30;1.00;;;;;;5053468;28;19917;-76
2024/03/11 15:14:22;;;;;;;;;;;15.20;1.00;;;;;;5053442;28;19920;-76
2024/03/11 15:16:50;;;;;;;;;;;15.20;1.00;;;;;;5053866;28;19912;-76
2024/03/11 15:19:18;;;;;;;;;;;15.30;1.00;;;;;;5053419;28;19921;-75
2024/03/11 15:21:43;;;;;;;;;;;15.30;1.00;;;;;;5053261;28;19916;-75
2024/03/11 15:24:10;;;;;;;;;;;15.30;1.00;;;;;;5051145;28;19917;-75
2024/03/11 15:26:44;;;;;;;;;;;15.10;1.00;;;;;;5052396;28;20341;-75
2024/03/11 15:29:17;;;;;;;;;;;15.10;1.00;;;;;;5052912;28;19912;-75
2024/03/11 15:31:43;;;;;;;;;;;15.10;1.00;;;;;;5050797;28;20006;-75
2024/03/11 15:34:09;;;;;;;;;;;15.10;1.00;;;;;;5037253;28;20022;-75
2024/03/11 15:36:42;;;;;;;;;;;15.40;1.00;;;;;;5053422;28;19909;-75
2024/03/11 15:39:07;;;;;;;;;;;15.70;1.00;;;;;;5054417;28;19913;-76
2024/03/11 15:41:35;;;;;;;;;;;16.00;1.00;;;;;;5056825;28;19936;-76
2024/03/11 15:44:02;;;;;;;;;;;17.10;1.00;;;;;;5055448;28;20003;-76
2024/03/11 15:46:29;;;;;;;;;;;17.20;1.00;;;;;;5057211;28;19919;-77
2024/03/11 15:48:59;;;;;;;;;;;17.30;1.00;;;;;;5039652;28;19994;-76
2024/03/11 15:51:31;;;;;;;;;;;17.50;1.00;;;;;;5057405;28;19967;-76
2024/03/11 15:53:59;;;;;;;;;;;17.90;1.00;;;;;;5057064;28;19909;-77
2024/03/11 15:56:29;;;;;;;;;;;17.70;1.00;;;;;;5050047;28;20434;-76
2024/03/11 15:59:00;;;;;;;;;;;17.70;1.00;;;;;;5056783;28;19913;-76
2024/03/11 16:01:31;;;;;;;;;;;16.90;1.00;;;;;;5051020;28;19913;-76
2024/03/11 16:04:00;;;;;;;;;;;16.80;1.00;;;;;;5056715;28;19915;-76
2024/03/11 16:06:30;;;;;;;;;;;16.50;1.00;;;;;;5056849;28;20325;-76